Alto Crest, New Mexico
Current Conditions -  °F | °C
As of 5:58 AM on Wednesday 22 Oct 2014 (Local Time) from KHMN Reporting Station
Clear Clear  
Wind Chill: 48°   Ceiling: Unl
Heat Index: 50°   Visibility: 10mi
Dew Point: 49°   Wind: 6mph
Humidity: 95%   Direction: 30°NNE
Pressure: 30.1"   Gusts: NA
Location:  33.3909°N, 105.634°W
Report Text: KHMN 221158Z AUTO 03005KT 10SM CLR 10/09 A3010 RMK AO2 SLP149 T00990092 10127 20099 53004 $
Loading
Personal Weather Stations






























Interactive Weather Map
Tropical Storm Tracking
New forecast layout! Learn more

10-Day Weather Forecast

Advertisements
Track Severe Weather on mobile